Time;durP1;ratioP1;P1;durP2;ratioP2;P2;SDS_P1;SDS_P2;PMS_P1;PMS_P2;Temp;Humidity;BMP_temperature;BMP_pressure;BME280_temperature;BME280_humidity;BME280_pressure;Samples;Min_cycle;Max_cycle;Signal;HPM_P1;HPM_P2
2022/02/08 00:01:27;;;;;;;2.80;1.67;;;;;;;;;;5049032;28;20563;-74
2022/02/08 00:03:54;;;;;;;5.83;4.33;;;;;;;;;;5059953;28;20476;-73
2022/02/08 00:06:37;;;;;;;2.17;1.67;;;;;;;;;;5058641;28;20802;-73
2022/02/08 00:09:06;;;;;;;4.27;1.10;;;;;;;;;;5053249;28;20465;-73
2022/02/08 00:11:35;;;;;;;8.47;3.40;;;;;;;;;;5045355;28;20450;-73
2022/02/08 00:14:02;;;;;;;11.73;4.40;;;;;;;;;;5038273;28;20450;-73
2022/02/08 00:16:30;;;;;;;3.97;2.50;;;;;;;;;;5039036;28;20608;-73
2022/02/08 00:18:57;;;;;;;3.60;3.00;;;;;;;;;;5038396;28;20490;-73
2022/02/08 00:21:24;;;;;;;3.17;2.10;;;;;;;;;;5038561;28;20462;-73
2022/02/08 00:23:55;;;;;;;7.00;2.93;;;;;;;;;;5038542;28;20451;-73
2022/02/08 00:26:22;;;;;;;9.70;2.63;;;;;;;;;;5038948;28;20532;-73
2022/02/08 00:28:51;;;;;;;21.17;19.13;;;;;;;;;;5039277;28;20537;-73
2022/02/08 00:31:18;;;;;;;5.80;3.00;;;;;;;;;;5038513;28;20553;-73
2022/02/08 00:33:47;;;;;;;8.57;3.07;;;;;;;;;;5038722;28;20462;-73
2022/02/08 00:36:14;;;;;;;5.00;2.60;;;;;;;;;;5038196;28;20465;-73
2022/02/08 00:38:41;;;;;;;9.47;3.70;;;;;;;;;;5038037;28;20498;-73
2022/02/08 00:41:09;;;;;;;2.30;1.83;;;;;;;;;;5038025;28;20459;-72
2022/02/08 00:43:44;;;;;;;7.23;1.93;;;;;;;;;;5037982;28;20524;-71
2022/02/08 00:46:18;;;;;;;4.33;1.67;;;;;;;;;;5038388;28;20526;-71
2022/02/08 00:48:55;;;;;;;6.53;3.47;;;;;;;;;;5038329;28;20446;-71
2022/02/08 00:51:24;;;;;;;4.27;1.50;;;;;;;;;;5038105;28;20461;-73
2022/02/08 00:53:51;;;;;;;5.67;1.67;;;;;;;;;;5043961;28;20452;-73
2022/02/08 00:56:18;;;;;;;6.97;2.40;;;;;;;;;;5058151;28;20774;-73
2022/02/08 00:58:46;;;;;;;10.57;3.30;;;;;;;;;;5057720;28;20525;-73
2022/02/08 01:01:13;;;;;;;9.03;5.03;;;;;;;;;;5065670;28;20460;-73
2022/02/08 01:03:42;;;;;;;7.30;1.80;;;;;;;;;;5063989;28;20450;-73
2022/02/08 01:06:10;;;;;;;2.63;1.47;;;;;;;;;;5058120;28;20522;-73
2022/02/08 01:08:38;;;;;;;8.30;3.07;;;;;;;;;;5058232;28;20457;-73
2022/02/08 01:11:08;;;;;;;5.10;2.17;;;;;;;;;;5057904;28;20548;-73
2022/02/08 01:13:37;;;;;;;2.40;1.47;;;;;;;;;;5057523;28;20457;-73
2022/02/08 01:16:04;;;;;;;6.30;2.60;;;;;;;;;;5054970;28;20453;-73
2022/02/08 01:18:36;;;;;;;2.87;2.10;;;;;;;;;;5059679;28;20484;-73
2022/02/08 01:21:04;;;;;;;1.93;1.30;;;;;;;;;;5076144;28;20453;-73
2022/02/08 01:23:33;;;;;;;9.40;6.87;;;;;;;;;;5076279;28;20716;-73
2022/02/08 01:26:08;;;;;;;7.80;2.73;;;;;;;;;;5059658;28;20465;-73
2022/02/08 01:28:42;;;;;;;4.40;1.83;;;;;;;;;;5067520;28;21022;-73
2022/02/08 01:31:13;;;;;;;6.60;1.93;;;;;;;;;;5057927;28;20549;-73
2022/02/08 01:34:08;;;;;;;4.30;2.27;;;;;;;;;;5056924;28;20540;-73
2022/02/08 01:37:00;;;;;;;3.40;1.90;;;;;;;;;;5058008;28;20868;-73
2022/02/08 01:39:36;;;;;;;12.37;9.07;;;;;;;;;;5057729;28;20559;-73
2022/02/08 01:42:24;;;;;;;3.50;1.73;;;;;;;;;;5057439;28;20445;-73
2022/02/08 01:47:46;;;;;;;4.60;1.47;;;;;;;;;;5053234;28;20470;-73
2022/02/08 01:50:17;;;;;;;10.57;2.00;;;;;;;;;;5076978;28;20482;-73
2022/02/08 01:52:44;;;;;;;5.03;2.00;;;;;;;;;;5076620;28;20467;-73
2022/02/08 01:55:16;;;;;;;3.43;1.00;;;;;;;;;;5076688;28;20780;-73
2022/02/08 01:57:45;;;;;;;4.20;2.23;;;;;;;;;;5076705;28;20480;-73
2022/02/08 02:00:16;;;;;;;6.60;2.23;;;;;;;;;;5066860;28;20459;-73
2022/02/08 02:02:43;;;;;;;5.23;2.33;;;;;;;;;;5056567;28;20497;-73
2022/02/08 02:05:10;;;;;;;9.40;2.20;;;;;;;;;;5056448;28;20797;-73
2022/02/08 02:07:46;;;;;;;3.20;1.50;;;;;;;;;;5074986;28;20729;-73
2022/02/08 02:10:14;;;;;;;3.30;1.77;;;;;;;;;;5076576;28;20443;-73
2022/02/08 02:12:49;;;;;;;4.13;1.57;;;;;;;;;;5075597;28;20471;-73
2022/02/08 02:15:16;;;;;;;2.50;1.87;;;;;;;;;;5076660;28;20517;-72
2022/02/08 02:17:46;;;;;;;2.50;1.87;;;;;;;;;;5076149;28;20480;-73
2022/02/08 02:20:14;;;;;;;4.10;1.90;;;;;;;;;;5067334;28;20446;-73
2022/02/08 02:22:41;;;;;;;4.93;2.50;;;;;;;;;;5070917;28;20452;-73
2022/02/08 02:25:32;;;;;;;5.47;2.17;;;;;;;;;;5075973;28;20869;-73
2022/02/08 02:28:01;;;;;;;5.00;2.80;;;;;;;;;;5075792;28;20491;-73
2022/02/08 02:30:33;;;;;;;6.43;2.37;;;;;;;;;;5075768;28;20451;-73
2022/02/08 02:33:01;;;;;;;4.47;2.60;;;;;;;;;;5076845;28;20517;-73
2022/02/08 02:35:29;;;;;;;6.00;1.97;;;;;;;;;;5061848;28;20535;-73
2022/02/08 02:37:57;;;;;;;6.90;3.97;;;;;;;;;;5056738;28;21041;-73
2022/02/08 02:40:25;;;;;;;2.43;1.77;;;;;;;;;;5066497;28;20459;-73
2022/02/08 02:42:56;;;;;;;7.13;2.30;;;;;;;;;;5075830;28;20452;-73
2022/02/08 02:45:23;;;;;;;7.30;3.40;;;;;;;;;;5056152;28;20959;-73
2022/02/08 02:47:51;;;;;;;6.23;2.00;;;;;;;;;;5060259;28;20496;-73
2022/02/08 02:50:18;;;;;;;5.07;1.97;;;;;;;;;;5055552;28;20468;-73
2022/02/08 02:52:46;;;;;;;8.83;3.90;;;;;;;;;;5058097;28;20560;-73
2022/02/08 02:55:14;;;;;;;12.90;4.10;;;;;;;;;;5075820;28;20833;-73
2022/02/08 02:57:43;;;;;;;7.53;7.00;;;;;;;;;;5075808;28;20609;-73
2022/02/08 03:00:13;;;;;;;6.40;2.40;;;;;;;;;;5075307;28;20510;-73
2022/02/08 03:02:45;;;;;;;3.00;1.90;;;;;;;;;;5059067;28;20466;-73
2022/02/08 03:05:24;;;;;;;5.00;3.17;;;;;;;;;;5055869;28;20461;-73
2022/02/08 03:18:57;;;;;;;9.47;3.67;;;;;;;;;;5055535;28;20939;-72
2022/02/08 03:21:24;;;;;;;3.67;2.50;;;;;;;;;;5056143;28;20885;-72
2022/02/08 03:23:51;;;;;;;7.13;2.50;;;;;;;;;;5056712;28;20554;-72
2022/02/08 03:26:18;;;;;;;5.03;2.47;;;;;;;;;;5059758;28;21060;-73
2022/02/08 03:28:49;;;;;;;12.80;3.90;;;;;;;;;;5061076;28;20468;-72
2022/02/08 03:31:16;;;;;;;5.73;3.00;;;;;;;;;;5059630;28;20482;-73
2022/02/08 03:33:46;;;;;;;22.77;4.70;;;;;;;;;;5059840;28;20468;-72
2022/02/08 03:36:16;;;;;;;11.83;3.23;;;;;;;;;;5059882;28;20457;-72
2022/02/08 03:38:47;;;;;;;9.77;2.80;;;;;;;;;;5067979;28;20579;-72
2022/02/08 03:41:16;;;;;;;7.60;4.13;;;;;;;;;;5078789;28;20880;-73
2022/02/08 03:43:46;;;;;;;11.03;10.10;;;;;;;;;;5078209;28;20833;-74
2022/02/08 03:46:16;;;;;;;15.77;4.60;;;;;;;;;;5079230;28;20734;-74
2022/02/08 03:48:44;;;;;;;7.83;3.80;;;;;;;;;;5079571;28;20468;-74
2022/02/08 03:51:13;;;;;;;4.43;2.73;;;;;;;;;;5080221;28;20480;-74
2022/02/08 03:56:26;;;;;;;8.30;4.60;;;;;;;;;;5055956;28;20463;-73
2022/02/08 03:58:57;;;;;;;9.13;5.57;;;;;;;;;;5057610;28;20558;-73
2022/02/08 04:06:55;;;;;;;13.10;12.10;;;;;;;;;;5054903;28;20725;-73
2022/02/08 04:09:22;;;;;;;5.47;4.90;;;;;;;;;;5058309;28;20560;-74
2022/02/08 04:11:57;;;;;;;15.07;6.70;;;;;;;;;;5059008;28;20453;-73
2022/02/08 04:14:33;;;;;;;41.60;38.40;;;;;;;;;;5058789;28;20450;-73
2022/02/08 04:17:13;;;;;;;11.17;5.27;;;;;;;;;;5058885;28;20452;-73
2022/02/08 04:19:50;;;;;;;16.73;6.00;;;;;;;;;;5058648;28;20489;-74
2022/02/08 04:33:57;;;;;;;8.03;4.30;;;;;;;;;;5014398;28;20490;-74
2022/02/08 04:36:58;;;;;;;15.53;7.40;;;;;;;;;;5077610;28;20938;-73
2022/02/08 04:39:43;;;;;;;9.63;6.20;;;;;;;;;;5078412;28;20500;-73
2022/02/08 04:42:17;;;;;;;10.87;6.27;;;;;;;;;;5078695;28;20459;-73
2022/02/08 04:45:00;;;;;;;10.07;6.67;;;;;;;;;;5077025;28;20456;-73
2022/02/08 04:47:33;;;;;;;7.50;6.13;;;;;;;;;;5075765;28;20476;-74
2022/02/08 04:50:01;;;;;;;15.00;6.57;;;;;;;;;;5070717;28;20448;-73
2022/02/08 04:52:29;;;;;;;8.60;6.63;;;;;;;;;;5058397;28;20465;-73
2022/02/08 04:55:09;;;;;;;15.73;8.20;;;;;;;;;;5063634;28;20449;-73
2022/02/08 04:57:46;;;;;;;10.90;6.60;;;;;;;;;;5077230;28;20460;-73
2022/02/08 05:00:22;;;;;;;8.60;4.67;;;;;;;;;;5061394;28;20448;-74
2022/02/08 05:41:52;;;;;;;5.80;4.60;;;;;;;;;;5074045;28;20594;-74
2022/02/08 05:44:32;;;;;;;5.63;2.77;;;;;;;;;;5076688;28;20470;-74
2022/02/08 05:46:59;;;;;;;5.60;3.80;;;;;;;;;;5075758;28;20468;-73
2022/02/08 05:49:38;;;;;;;9.07;7.13;;;;;;;;;;5056391;28;20552;-73
2022/02/08 05:54:57;;;;;;;6.33;4.10;;;;;;;;;;5056860;28;20547;-73
2022/02/08 05:57:24;;;;;;;10.97;6.03;;;;;;;;;;5043199;28;20801;-73
2022/02/08 05:59:52;;;;;;;7.17;4.70;;;;;;;;;;5036489;28;20533;-73
2022/02/08 06:02:20;;;;;;;7.80;5.10;;;;;;;;;;5036207;28;20466;-73
2022/02/08 06:04:48;;;;;;;8.47;6.60;;;;;;;;;;5035521;28;20453;-73
2022/02/08 06:07:19;;;;;;;60.53;21.80;;;;;;;;;;5035793;28;20457;-73
2022/02/08 06:09:48;;;;;;;11.93;5.67;;;;;;;;;;5036793;28;20485;-73
2022/02/08 06:12:17;;;;;;;9.23;6.90;;;;;;;;;;5035473;28;20458;-73
2022/02/08 06:14:45;;;;;;;8.80;7.30;;;;;;;;;;5039490;28;20858;-73
2022/02/08 06:17:12;;;;;;;21.00;6.90;;;;;;;;;;5061498;28;20534;-73
2022/02/08 06:19:39;;;;;;;7.30;5.00;;;;;;;;;;5052870;28;20580;-73
2022/02/08 06:22:06;;;;;;;12.30;6.73;;;;;;;;;;5036731;28;20462;-73
2022/02/08 06:24:33;;;;;;;17.10;7.63;;;;;;;;;;5034273;28;20453;-73
2022/02/08 06:27:00;;;;;;;12.13;6.70;;;;;;;;;;5047137;28;20893;-73
2022/02/08 06:29:27;;;;;;;15.47;9.57;;;;;;;;;;5054557;28;20793;-73
2022/02/08 06:31:54;;;;;;;19.63;7.90;;;;;;;;;;5053473;28;20469;-73
2022/02/08 06:34:27;;;;;;;26.00;12.63;;;;;;;;;;5052781;28;20457;-73
2022/02/08 06:37:06;;;;;;;21.63;12.63;;;;;;;;;;5053461;28;20462;-73
2022/02/08 06:39:36;;;;;;;10.37;6.03;;;;;;;;;;5052417;28;20503;-73
2022/02/08 06:42:03;;;;;;;13.80;8.57;;;;;;;;;;5047690;28;20469;-73
2022/02/08 06:44:31;;;;;;;7.97;6.93;;;;;;;;;;5043468;28;20821;-73
2022/02/08 06:46:58;;;;;;;16.13;9.30;;;;;;;;;;5052521;28;20584;-73
2022/02/08 06:49:25;;;;;;;22.43;11.13;;;;;;;;;;5050292;28;20877;-73
2022/02/08 06:51:52;;;;;;;13.63;7.50;;;;;;;;;;5052763;28;20493;-73
2022/02/08 06:54:20;;;;;;;8.00;5.90;;;;;;;;;;5036455;28;20489;-73
2022/02/08 06:56:50;;;;;;;15.00;9.60;;;;;;;;;;5048829;28;20446;-73
2022/02/08 06:59:19;;;;;;;21.70;11.37;;;;;;;;;;5052715;28;20528;-73
2022/02/08 07:01:47;;;;;;;14.00;9.07;;;;;;;;;;5035268;28;20457;-73
2022/02/08 07:04:17;;;;;;;23.83;12.70;;;;;;;;;;5033722;28;20848;-72
2022/02/08 07:06:45;;;;;;;11.20;8.50;;;;;;;;;;5033622;28;20463;-73
2022/02/08 07:09:12;;;;;;;22.23;13.87;;;;;;;;;;5034527;28;20454;-73
2022/02/08 07:11:44;;;;;;;18.73;11.40;;;;;;;;;;5031646;28;20757;-73
2022/02/08 07:14:12;;;;;;;9.57;7.80;;;;;;;;;;5040964;28;20518;-72
2022/02/08 07:16:48;;;;;;;28.73;17.90;;;;;;;;;;5055639;28;20550;-73
2022/02/08 07:19:19;;;;;;;14.40;7.70;;;;;;;;;;5069278;28;20481;-72
2022/02/08 07:21:46;;;;;;;15.77;10.20;;;;;;;;;;5043451;28;21070;-73
2022/02/08 07:24:18;;;;;;;17.60;10.97;;;;;;;;;;5034185;28;20473;-73
2022/02/08 07:29:33;;;;;;;14.93;6.63;;;;;;;;;;5044684;28;20450;-73
2022/02/08 07:32:03;;;;;;;19.80;12.33;;;;;;;;;;5052947;28;20873;-72
2022/02/08 07:34:41;;;;;;;18.50;10.93;;;;;;;;;;5029000;28;20457;-73
2022/02/08 07:39:54;;;;;;;19.97;10.13;;;;;;;;;;5046723;28;20488;-72
2022/02/08 07:42:28;;;;;;;14.47;9.77;;;;;;;;;;5039816;28;20781;-73
2022/02/08 07:45:03;;;;;;;14.40;10.00;;;;;;;;;;5051115;28;20627;-74
2022/02/08 07:47:36;;;;;;;19.87;10.67;;;;;;;;;;5051017;28;20445;-72
2022/02/08 07:50:20;;;;;;;23.77;13.73;;;;;;;;;;5063070;28;20518;-72
2022/02/08 07:52:50;;;;;;;12.37;9.80;;;;;;;;;;5074713;28;21011;-73
2022/02/08 07:55:23;;;;;;;17.83;11.63;;;;;;;;;;5045895;28;20469;-73
2022/02/08 07:58:09;;;;;;;19.13;9.17;;;;;;;;;;5053592;28;20463;-73
2022/02/08 08:00:52;;;;;;;17.53;12.00;;;;;;;;;;5054614;28;20521;-73
2022/02/08 08:03:29;;;;;;;27.53;13.80;;;;;;;;;;5043958;28;20755;-73
2022/02/08 08:09:06;;;;;;;16.03;11.27;;;;;;;;;;5041428;28;20904;-73
2022/02/08 08:11:37;;;;;;;13.33;7.07;;;;;;;;;;5056688;28;20484;-73
2022/02/08 08:14:07;;;;;;;19.77;12.33;;;;;;;;;;5058403;28;20450;-73
2022/02/08 08:16:49;;;;;;;24.50;13.67;;;;;;;;;;5054115;28;20445;-72
2022/02/08 08:19:24;;;;;;;19.07;11.47;;;;;;;;;;5056970;28;20992;-72
2022/02/08 08:22:01;;;;;;;29.43;19.27;;;;;;;;;;5053898;28;20456;-72
2022/02/08 08:24:29;;;;;;;22.27;12.63;;;;;;;;;;5040056;28;20485;-73
2022/02/08 08:27:03;;;;;;;27.50;12.07;;;;;;;;;;5045937;28;20462;-72
2022/02/08 08:29:37;;;;;;;26.77;9.90;;;;;;;;;;5050558;28;20772;-71
2022/02/08 08:32:24;;;;;;;21.77;13.43;;;;;;;;;;5028375;28;20445;-73
2022/02/08 08:34:52;;;;;;;27.73;14.80;;;;;;;;;;5060981;28;20522;-73
2022/02/08 08:37:19;;;;;;;29.50;16.63;;;;;;;;;;5042808;28;20464;-73
2022/02/08 08:39:52;;;;;;;36.20;17.87;;;;;;;;;;5042221;28;20774;-72
2022/02/08 08:42:36;;;;;;;18.77;12.03;;;;;;;;;;5062927;28;20912;-73
2022/02/08 08:48:32;;;;;;;20.13;10.60;;;;;;;;;;5053094;28;20892;-73
2022/02/08 08:48:43;;;;;;;21.87;13.80;;;;;;;;;;5053862;28;20473;-73
2022/02/08 08:51:25;;;;;;;16.10;10.83;;;;;;;;;;5035427;28;20517;-72
2022/02/08 08:53:52;;;;;;;16.93;12.73;;;;;;;;;;5043483;28;20470;-72
2022/02/08 08:56:20;;;;;;;23.33;12.30;;;;;;;;;;5051078;28;20468;-73
2022/02/08 08:58:48;;;;;;;17.27;10.17;;;;;;;;;;5048588;28;20486;-72
2022/02/08 09:01:16;;;;;;;16.17;9.57;;;;;;;;;;5045908;28;20480;-73
2022/02/08 09:03:49;;;;;;;22.30;15.30;;;;;;;;;;5056373;28;20514;-72
2022/02/08 09:06:19;;;;;;;19.20;12.93;;;;;;;;;;5058476;28;20453;-72
2022/02/08 09:08:46;;;;;;;15.33;10.70;;;;;;;;;;5064046;28;20453;-71
2022/02/08 09:11:22;;;;;;;22.00;11.93;;;;;;;;;;5066560;28;20455;-74
2022/02/08 09:14:02;;;;;;;22.60;12.57;;;;;;;;;;5045327;28;20460;-73
2022/02/08 09:16:39;;;;;;;21.80;11.90;;;;;;;;;;5054089;28;20457;-72
2022/02/08 09:19:42;;;;;;;9.83;5.93;;;;;;;;;;5035561;28;20932;-72
2022/02/08 09:27:56;;;;;;;12.73;8.10;;;;;;;;;;5054235;28;20445;-73
2022/02/08 09:30:37;;;;;;;21.70;11.67;;;;;;;;;;5052804;28;20492;-74
2022/02/08 09:33:04;;;;;;;14.53;10.83;;;;;;;;;;5036187;28;20462;-73
2022/02/08 09:35:35;;;;;;;14.47;8.97;;;;;;;;;;5056233;28;20440;-72
2022/02/08 09:38:02;;;;;;;15.83;8.53;;;;;;;;;;5058373;28;20451;-72
2022/02/08 09:40:53;;;;;;;14.63;9.20;;;;;;;;;;5052400;28;20537;-71
2022/02/08 09:43:25;;;;;;;14.63;10.20;;;;;;;;;;5054317;28;20454;-73
2022/02/08 09:46:05;;;;;;;16.37;9.50;;;;;;;;;;5041741;28;20447;-72
2022/02/08 09:48:39;;;;;;;18.97;9.33;;;;;;;;;;5046952;28;20465;-73
2022/02/08 09:51:11;;;;;;;13.73;9.13;;;;;;;;;;5036384;28;20732;-72
2022/02/08 09:53:42;;;;;;;11.30;6.47;;;;;;;;;;5038204;28;20790;-73
2022/02/08 09:56:18;;;;;;;9.90;6.33;;;;;;;;;;5053003;28;20523;-72
2022/02/08 09:58:45;;;;;;;13.07;8.33;;;;;;;;;;5055861;28;20485;-71
2022/02/08 10:01:15;;;;;;;13.93;7.83;;;;;;;;;;5063718;28;20449;-71
2022/02/08 10:03:57;;;;;;;7.37;5.17;;;;;;;;;;5039610;28;20457;-70
2022/02/08 10:06:25;;;;;;;9.70;6.53;;;;;;;;;;5055773;28;20528;-73
2022/02/08 10:09:05;;;;;;;6.50;4.67;;;;;;;;;;5043616;28;20462;-72
2022/02/08 10:11:42;;;;;;;9.10;6.10;;;;;;;;;;5057359;28;20455;-72
2022/02/08 10:14:20;;;;;;;10.37;7.20;;;;;;;;;;5060217;28;21086;-72
2022/02/08 10:22:50;;;;;;;10.50;5.77;;;;;;;;;;5042630;28;20434;-71
2022/02/08 10:25:47;;;;;;;8.20;5.63;;;;;;;;;;5055081;28;20449;-71
2022/02/08 10:28:30;;;;;;;9.37;6.63;;;;;;;;;;5048494;28;20492;-71
2022/02/08 10:31:18;;;;;;;10.67;7.47;;;;;;;;;;5043640;28;20468;-71
2022/02/08 10:39:33;;;;;;;7.53;6.20;;;;;;;;;;5061966;28;20545;-73
2022/02/08 10:42:17;;;;;;;8.13;4.00;;;;;;;;;;5056767;28;20465;-72
2022/02/08 10:44:47;;;;;;;10.70;7.70;;;;;;;;;;5051402;28;20850;-72
2022/02/08 10:47:25;;;;;;;6.00;5.03;;;;;;;;;;5051766;28;20442;-73
2022/02/08 10:49:53;;;;;;;7.77;5.10;;;;;;;;;;5036935;28;20461;-72
2022/02/08 10:52:21;;;;;;;9.27;5.47;;;;;;;;;;5033811;28;20457;-72
2022/02/08 10:54:59;;;;;;;12.60;7.60;;;;;;;;;;5043939;28;20454;-73
2022/02/08 10:57:44;;;;;;;9.03;6.43;;;;;;;;;;5045794;28;20458;-72
2022/02/08 11:00:12;;;;;;;4.50;3.57;;;;;;;;;;5040310;28;20576;-75
2022/02/08 11:02:43;;;;;;;7.50;5.50;;;;;;;;;;5056169;28;20905;-72
2022/02/08 11:05:21;;;;;;;6.10;4.77;;;;;;;;;;5045935;28;20453;-73
2022/02/08 11:08:17;;;;;;;12.47;8.40;;;;;;;;;;5045946;28;20906;-73
2022/02/08 11:11:05;;;;;;;9.00;5.57;;;;;;;;;;5027941;28;20463;-73
2022/02/08 11:16:25;;;;;;;8.13;5.47;;;;;;;;;;4999142;28;20448;-72
2022/02/08 11:19:08;;;;;;;9.40;6.47;;;;;;;;;;5040816;28;20504;-72
2022/02/08 11:21:52;;;;;;;8.07;6.57;;;;;;;;;;5039729;28;20461;-72
2022/02/08 11:24:26;;;;;;;10.50;6.10;;;;;;;;;;5033419;28;20472;-73
2022/02/08 11:27:01;;;;;;;10.73;8.27;;;;;;;;;;5034288;28;20508;-72
2022/02/08 11:29:31;;;;;;;10.20;5.00;;;;;;;;;;5043561;28;20455;-72
2022/02/08 11:32:17;;;;;;;8.03;5.20;;;;;;;;;;5034131;28;20462;-72
2022/02/08 11:46:10;;;;;;;10.90;5.50;;;;;;;;;;5058085;28;20542;-72
2022/02/08 11:51:47;;;;;;;9.07;5.40;;;;;;;;;;5020770;28;20450;-72
2022/02/08 11:54:32;;;;;;;7.23;4.90;;;;;;;;;;5057612;28;20979;-73
2022/02/08 12:00:06;;;;;;;16.50;7.23;;;;;;;;;;5042591;28;21003;-72
2022/02/08 12:06:01;;;;;;;6.57;4.80;;;;;;;;;;5051459;28;20790;-72
2022/02/08 12:08:29;;;;;;;9.87;4.83;;;;;;;;;;5054549;28;20457;-72
2022/02/08 12:31:23;;;;;;;6.20;3.10;;;;;;;;;;5071484;28;20464;-72
2022/02/08 12:33:58;;;;;;;12.07;6.03;;;;;;;;;;5040627;28;20750;-72
2022/02/08 12:39:40;;;;;;;10.17;5.47;;;;;;;;;;5063529;28;20544;-72
2022/02/08 12:48:28;;;;;;;11.27;5.87;;;;;;;;;;5049541;28;20572;-72
2022/02/08 12:56:38;;;;;;;10.37;5.80;;;;;;;;;;5055699;28;20553;-72
2022/02/08 12:59:20;;;;;;;16.17;6.73;;;;;;;;;;5056443;28;20485;-72
2022/02/08 13:02:07;;;;;;;12.20;8.80;;;;;;;;;;5038284;28;20466;-71
2022/02/08 14:08:26;;;;;;;11.27;5.13;;;;;;;;;;4936151;28;20903;-71
2022/02/08 14:11:16;;;;;;;6.80;4.90;;;;;;;;;;4961172;28;20620;-72
2022/02/08 14:14:02;;;;;;;4.87;3.70;;;;;;;;;;4957978;28;20460;-71
2022/02/08 14:16:42;;;;;;;9.40;6.50;;;;;;;;;;4967755;28;20497;-72
2022/02/08 14:19:29;;;;;;;5.47;4.33;;;;;;;;;;4967471;28;20484;-72
2022/02/08 14:22:11;;;;;;;9.73;7.73;;;;;;;;;;4967285;28;20454;-71
2022/02/08 14:25:14;;;;;;;6.67;4.40;;;;;;;;;;4970702;28;20496;-71
2022/02/08 14:30:45;;;;;;;12.07;4.50;;;;;;;;;;4957505;28;20444;-72
2022/02/08 14:36:26;;;;;;;5.03;4.57;;;;;;;;;;4966773;28;20460;-72
2022/02/08 15:07:23;;;;;;;11.73;7.20;;;;;;;;;;4922355;29;20774;-72
2022/02/08 15:09:54;;;;;;;9.00;6.33;;;;;;;;;;4918884;29;20527;-71
2022/02/08 15:12:22;;;;;;;12.77;5.73;;;;;;;;;;4949170;28;20462;-71
2022/02/08 15:14:53;;;;;;;11.63;8.07;;;;;;;;;;4957820;28;20516;-72
2022/02/08 15:17:25;;;;;;;11.40;7.90;;;;;;;;;;4973165;28;20547;-72
2022/02/08 15:19:54;;;;;;;11.23;7.43;;;;;;;;;;4970220;28;20477;-72
2022/02/08 15:25:56;;;;;;;6.07;3.47;;;;;;;;;;4965273;28;20577;-72
2022/02/08 15:28:35;;;;;;;5.33;3.10;;;;;;;;;;4980856;28;20449;-72
2022/02/08 15:31:06;;;;;;;8.30;5.40;;;;;;;;;;4975446;28;20444;-72
2022/02/08 15:33:42;;;;;;;12.23;6.73;;;;;;;;;;4968627;28;20573;-72
2022/02/08 15:36:15;;;;;;;5.33;3.40;;;;;;;;;;4976050;28;20457;-72
2022/02/08 15:38:47;;;;;;;8.50;5.53;;;;;;;;;;4967888;28;20897;-72
2022/02/08 15:41:14;;;;;;;4.83;3.20;;;;;;;;;;4959090;28;20894;-72
2022/02/08 15:43:41;;;;;;;7.17;4.70;;;;;;;;;;4963376;28;20548;-72
2022/02/08 15:46:18;;;;;;;5.47;3.53;;;;;;;;;;4962844;28;20446;-72
2022/02/08 15:48:55;;;;;;;3.50;2.37;;;;;;;;;;4961127;28;20604;-72
2022/02/08 15:52:06;;;;;;;;;;;;;;;;;;;;;
2022/02/08 15:54:47;;;;;;;2.50;2.00;;;;;;;;;;4950119;28;20457;-72
2022/02/08 15:58:02;;;;;;;5.60;3.50;;;;;;;;;;4964512;28;20516;-72
2022/02/08 16:11:58;;;;;;;3.40;2.40;;;;;;;;;;4911585;28;1640486;-72
2022/02/08 16:14:48;;;;;;;4.33;2.53;;;;;;;;;;4971764;28;20214;-72
2022/02/08 16:17:32;;;;;;;2.77;2.10;;;;;;;;;;4974073;28;20465;-73
2022/02/08 16:20:34;;;;;;;21.47;13.47;;;;;;;;;;4978109;28;20911;-72
2022/02/08 16:23:49;;;;;;;4.07;2.83;;;;;;;;;;4973279;28;20452;-73
2022/02/08 16:26:31;;;;;;;3.40;2.20;;;;;;;;;;4964755;28;20449;-73
2022/02/08 16:29:11;;;;;;;6.37;3.70;;;;;;;;;;4961830;28;21141;-73
2022/02/08 16:46:12;;;;;;;9.10;3.63;;;;;;;;;;4974415;28;20432;-74
2022/02/08 16:54:22;;;;;;;6.30;4.20;;;;;;;;;;4914124;29;20450;-74
2022/02/08 16:59:38;;;;;;;5.20;2.60;;;;;;;;;;4975919;28;20976;-73
2022/02/08 17:02:08;;;;;;;9.07;5.73;;;;;;;;;;4964785;28;20754;-73
2022/02/08 17:07:27;;;;;;;6.80;3.87;;;;;;;;;;4974318;28;20455;-74
2022/02/08 17:10:02;;;;;;;6.63;4.27;;;;;;;;;;4968203;28;20454;-73
2022/02/08 17:12:40;;;;;;;6.23;3.60;;;;;;;;;;4969881;28;20452;-73
2022/02/08 17:15:40;;;;;;;5.47;4.07;;;;;;;;;;4961332;28;20524;-74
2022/02/08 17:35:53;;;;;;;6.20;4.03;;;;;;;;;;4967906;28;20452;-73
2022/02/08 17:49:38;;;;;;;103.20;62.20;;;;;;;;;;4971394;28;20909;-74
2022/02/08 17:52:13;;;;;;;30.80;18.83;;;;;;;;;;4978570;28;20453;-74
2022/02/08 17:54:59;;;;;;;10.80;4.63;;;;;;;;;;4984743;28;20527;-74
2022/02/08 17:57:41;;;;;;;9.27;4.50;;;;;;;;;;4968555;28;20464;-74
2022/02/08 18:00:41;;;;;;;6.50;4.20;;;;;;;;;;4978673;28;20497;-73
2022/02/08 18:06:19;;;;;;;3.93;2.80;;;;;;;;;;4931826;29;20456;-73
2022/02/08 18:08:53;;;;;;;6.00;3.00;;;;;;;;;;4992928;28;20526;-73
2022/02/08 18:11:42;;;;;;;11.90;4.70;;;;;;;;;;4980040;28;20529;-73
2022/02/08 18:14:18;;;;;;;7.63;4.43;;;;;;;;;;4976457;28;20467;-73
2022/02/08 18:17:01;;;;;;;49.20;25.77;;;;;;;;;;4959374;28;21046;-74
2022/02/08 18:19:37;;;;;;;5.83;3.77;;;;;;;;;;4960654;28;20583;-73
2022/02/08 18:22:25;;;;;;;132.37;72.50;;;;;;;;;;4971608;28;20564;-72
2022/02/08 18:25:23;;;;;;;6.33;3.63;;;;;;;;;;4973783;28;20814;-73
2022/02/08 18:28:17;;;;;;;5.00;3.67;;;;;;;;;;4956646;29;20458;-72
2022/02/08 18:56:59;;;;;;;5.33;3.70;;;;;;;;;;4976394;28;20440;-74
2022/02/08 19:07:58;;;;;;;4.40;3.30;;;;;;;;;;4966196;28;20488;-74
2022/02/08 19:17:12;;;;;;;11.30;6.23;;;;;;;;;;4878599;29;20538;-74
2022/02/08 19:19:55;;;;;;;7.03;4.10;;;;;;;;;;4939972;29;20483;-75
2022/02/08 19:22:29;;;;;;;9.07;5.00;;;;;;;;;;4940208;29;20506;-74
2022/02/08 19:24:57;;;;;;;7.70;4.70;;;;;;;;;;4939660;29;20454;-73
2022/02/08 19:27:27;;;;;;;9.93;5.77;;;;;;;;;;4939944;29;20463;-73
2022/02/08 19:29:55;;;;;;;5.87;4.03;;;;;;;;;;4939774;29;20458;-73
2022/02/08 19:32:27;;;;;;;10.53;5.03;;;;;;;;;;4960764;28;20470;-74
2022/02/08 19:34:56;;;;;;;12.10;7.57;;;;;;;;;;4942344;29;20899;-74
2022/02/08 19:37:24;;;;;;;10.07;6.53;;;;;;;;;;4941906;28;20462;-73
2022/02/08 19:39:59;;;;;;;8.93;5.97;;;;;;;;;;4954983;29;20496;-74
2022/02/08 19:42:31;;;;;;;8.20;5.90;;;;;;;;;;4958304;28;20464;-74
2022/02/08 19:45:15;;;;;;;8.50;6.40;;;;;;;;;;4958772;28;20548;-73
2022/02/08 19:47:47;;;;;;;13.30;8.07;;;;;;;;;;4969563;28;20559;-74
2022/02/08 19:50:15;;;;;;;10.00;6.67;;;;;;;;;;4968763;28;20485;-73
2022/02/08 19:52:44;;;;;;;10.80;7.53;;;;;;;;;;4953575;28;20475;-72
2022/02/08 19:55:38;;;;;;;12.03;6.40;;;;;;;;;;4961152;28;20923;-73
2022/02/08 19:58:23;;;;;;;11.30;6.60;;;;;;;;;;4943637;28;20459;-74
2022/02/08 20:01:06;;;;;;;13.10;8.30;;;;;;;;;;4966593;28;20491;-72
2022/02/08 20:03:42;;;;;;;14.23;7.83;;;;;;;;;;4956796;28;20458;-73
2022/02/08 20:06:16;;;;;;;10.60;7.50;;;;;;;;;;4969594;28;20714;-73
2022/02/08 20:08:51;;;;;;;12.30;9.03;;;;;;;;;;4979807;28;20461;-73
2022/02/08 20:11:18;;;;;;;13.17;8.30;;;;;;;;;;4983081;28;20471;-74
2022/02/08 20:13:57;;;;;;;17.73;10.33;;;;;;;;;;4999237;28;20463;-75
2022/02/08 20:16:33;;;;;;;13.00;8.23;;;;;;;;;;4999058;28;20468;-74
2022/02/08 20:19:24;;;;;;;14.80;8.57;;;;;;;;;;4999252;28;20466;-75
2022/02/08 20:22:01;;;;;;;11.57;8.30;;;;;;;;;;4991267;28;20485;-74
2022/02/08 20:24:29;;;;;;;12.80;9.00;;;;;;;;;;4968510;28;20532;-74
2022/02/08 20:27:31;;;;;;;12.50;8.53;;;;;;;;;;4969246;28;20468;-74
2022/02/08 20:30:08;;;;;;;12.67;8.23;;;;;;;;;;4959310;28;20442;-74
2022/02/08 20:32:36;;;;;;;18.60;8.53;;;;;;;;;;4971894;28;20467;-74
2022/02/08 20:35:07;;;;;;;14.73;9.13;;;;;;;;;;4979123;28;20709;-75
2022/02/08 20:37:38;;;;;;;14.47;7.60;;;;;;;;;;4977602;28;20471;-72
2022/02/08 20:40:09;;;;;;;12.97;8.20;;;;;;;;;;4963802;28;20494;-75
2022/02/08 20:43:04;;;;;;;13.87;8.67;;;;;;;;;;4960949;28;20746;-74
2022/02/08 20:45:39;;;;;;;11.17;8.17;;;;;;;;;;4960187;29;20454;-74
2022/02/08 20:48:09;;;;;;;14.37;9.40;;;;;;;;;;4959820;29;20472;-74
2022/02/08 20:50:42;;;;;;;9.13;5.80;;;;;;;;;;4959910;29;20508;-74
2022/02/08 20:53:13;;;;;;;11.93;8.77;;;;;;;;;;4959899;28;20793;-75
2022/02/08 20:55:48;;;;;;;13.40;7.87;;;;;;;;;;4961187;28;20768;-72
2022/02/08 20:58:21;;;;;;;14.13;8.67;;;;;;;;;;4959859;28;20557;-74
2022/02/08 21:01:00;;;;;;;16.73;10.10;;;;;;;;;;4976967;28;20504;-75
2022/02/08 21:03:40;;;;;;;18.30;8.33;;;;;;;;;;4970651;28;20457;-74
2022/02/08 21:06:14;;;;;;;9.77;5.20;;;;;;;;;;4975256;28;20786;-74
2022/02/08 21:08:42;;;;;;;17.87;9.73;;;;;;;;;;4960146;28;20462;-74
2022/02/08 21:11:13;;;;;;;17.63;9.70;;;;;;;;;;4965162;28;20441;-74
2022/02/08 21:13:49;;;;;;;15.43;8.43;;;;;;;;;;4972247;28;20509;-74
2022/02/08 21:16:18;;;;;;;11.50;7.17;;;;;;;;;;4964412;28;20484;-74
2022/02/08 21:18:46;;;;;;;19.77;10.60;;;;;;;;;;4965204;28;20457;-75
2022/02/08 21:21:15;;;;;;;20.53;11.20;;;;;;;;;;4977187;28;20477;-74
2022/02/08 21:23:44;;;;;;;12.67;8.73;;;;;;;;;;4962016;28;20477;-76
2022/02/08 21:26:21;;;;;;;16.13;9.40;;;;;;;;;;4979287;28;20453;-75
2022/02/08 21:31:51;;;;;;;14.10;9.00;;;;;;;;;;4953539;28;20422;-75
2022/02/08 21:49:09;;;;;;;10.63;6.30;;;;;;;;;;4894785;29;20435;-73